createdAt,value
2023-02-06T00:00:18.524Z,11.60
2023-02-06T00:03:05.953Z,10.77
2023-02-06T00:05:58.163Z,15.05
2023-02-06T00:08:45.253Z,13.25
2023-02-06T00:11:32.160Z,13.23
2023-02-06T00:14:19.030Z,14.87
2023-02-06T00:17:05.981Z,13.40
2023-02-06T00:19:52.844Z,14.57
2023-02-06T00:22:40.303Z,14.43
2023-02-06T00:25:27.129Z,18.42
2023-02-06T00:28:14.286Z,19.63
2023-02-06T00:31:01.308Z,20.48
2023-02-06T00:33:48.414Z,21.55
2023-02-06T00:36:35.237Z,21.38
2023-02-06T00:39:22.076Z,24.13
2023-02-06T00:42:09.032Z,21.67
2023-02-06T00:44:55.851Z,20.43
2023-02-06T00:47:42.695Z,22.33
2023-02-06T00:50:29.675Z,20.40
2023-02-06T00:53:16.710Z,23.83
2023-02-06T00:56:03.867Z,20.92
2023-02-06T00:58:50.675Z,21.30
2023-02-06T01:01:37.562Z,24.95
2023-02-06T01:04:24.629Z,22.08
2023-02-06T01:07:11.695Z,22.15
2023-02-06T01:09:58.604Z,22.17
2023-02-06T01:12:45.689Z,18.50
2023-02-06T01:15:32.608Z,19.67
2023-02-06T01:18:19.533Z,16.92
2023-02-06T01:21:15.236Z,18.37
2023-02-06T01:24:02.200Z,19.38
2023-02-06T01:26:49.013Z,18.80
2023-02-06T01:29:35.977Z,21.00
2023-02-06T01:32:22.801Z,23.90
2023-02-06T01:35:11.775Z,22.47
2023-02-06T01:37:59.012Z,23.02
2023-02-06T01:40:45.878Z,25.27
2023-02-06T01:43:37.854Z,25.80
2023-02-06T01:46:25.025Z,22.40
2023-02-06T01:49:29.759Z,16.60
2023-02-06T01:52:30.556Z,28.13
2023-02-06T01:55:17.836Z,24.15
2023-02-06T01:58:05.662Z,26.95
2023-02-06T02:03:42.928Z,25.75
2023-02-06T02:06:29.804Z,25.88
2023-02-06T02:09:18.642Z,25.57
2023-02-06T02:12:06.292Z,25.85
2023-02-06T02:14:54.573Z,24.85
2023-02-06T02:18:09.103Z,23.98
2023-02-06T02:21:37.472Z,27.25
2023-02-06T02:25:20.074Z,28.40
2023-02-06T02:28:48.184Z,22.63
2023-02-06T02:31:38.807Z,22.98
2023-02-06T02:35:07.093Z,22.58
2023-02-06T02:38:12.430Z,22.52
2023-02-06T02:41:26.858Z,25.02
2023-02-06T02:44:31.316Z,24.50
2023-02-06T02:47:21.196Z,26.25
2023-02-06T02:50:08.400Z,26.50
2023-02-06T02:52:55.793Z,28.83
2023-02-06T02:55:42.722Z,25.92
2023-02-06T02:58:34.158Z,24.53
2023-02-06T03:01:26.426Z,23.67
2023-02-06T03:04:19.461Z,26.27
2023-02-06T03:07:15.085Z,24.17
2023-02-06T03:10:20.792Z,25.00
2023-02-06T03:13:18.072Z,23.75
2023-02-06T03:16:17.340Z,22.55
2023-02-06T03:19:44.125Z,20.92
2023-02-06T03:22:32.932Z,24.25
2023-02-06T03:25:28.121Z,31.50
2023-02-06T03:28:21.246Z,27.08
2023-02-06T03:31:11.946Z,30.63
2023-02-06T03:34:07.017Z,30.58
2023-02-06T03:36:53.953Z,27.30
2023-02-06T03:39:40.946Z,28.05
2023-02-06T03:42:29.742Z,25.17
2023-02-06T03:45:28.609Z,28.33
2023-02-06T03:48:21.802Z,28.52
2023-02-06T03:51:13.419Z,25.73
2023-02-06T03:54:02.932Z,26.08
2023-02-06T03:57:02.910Z,27.30
2023-02-06T03:59:50.142Z,26.33
2023-02-06T04:02:37.868Z,24.48
2023-02-06T04:08:11.681Z,26.33
2023-02-06T04:10:58.583Z,27.03
2023-02-06T04:13:45.496Z,26.07
2023-02-06T04:16:32.355Z,27.60
2023-02-06T04:19:19.174Z,32.40
2023-02-06T04:22:07.308Z,28.53
2023-02-06T04:24:54.244Z,30.05
2023-02-06T04:27:41.194Z,30.15
2023-02-06T04:30:28.312Z,28.35
2023-02-06T04:33:15.205Z,30.73
2023-02-06T04:36:02.094Z,23.03
2023-02-06T04:38:48.945Z,35.37
2023-02-06T04:41:35.778Z,33.57
2023-02-06T04:44:23.115Z,33.20
2023-02-06T04:47:10.008Z,32.88
2023-02-06T04:49:56.797Z,33.03
2023-02-06T04:52:43.658Z,31.73
2023-02-06T04:55:30.512Z,36.27
2023-02-06T04:58:17.349Z,35.87
2023-02-06T05:01:04.322Z,32.70
2023-02-06T05:03:51.330Z,30.55
2023-02-06T05:06:38.228Z,32.08
2023-02-06T05:09:25.072Z,34.70
2023-02-06T05:12:14.206Z,36.93
2023-02-06T05:15:01.236Z,33.72
2023-02-06T05:17:48.123Z,33.87
2023-02-06T05:20:35.005Z,32.67
2023-02-06T05:23:21.910Z,36.43
2023-02-06T05:26:08.980Z,31.53
2023-02-06T05:28:55.826Z,36.90
2023-02-06T05:31:42.900Z,31.43
2023-02-06T05:34:29.764Z,32.63
2023-02-06T05:37:16.689Z,31.67
2023-02-06T05:40:07.190Z,38.25
2023-02-06T05:42:54.058Z,33.08
2023-02-06T05:45:41.119Z,38.87
2023-02-06T05:48:30.600Z,35.83
2023-02-06T05:51:17.580Z,34.95
2023-02-06T05:54:04.802Z,36.90
2023-02-06T05:56:51.836Z,37.40
2023-02-06T05:59:38.848Z,41.75
2023-02-06T06:02:25.712Z,40.85
2023-02-06T06:05:12.588Z,42.73
2023-02-06T06:07:59.391Z,37.03
2023-02-06T06:10:46.272Z,36.43
2023-02-06T06:13:33.120Z,38.73
2023-02-06T06:16:19.917Z,41.37
2023-02-06T06:19:07.016Z,38.53
2023-02-06T06:21:53.870Z,40.42
2023-02-06T06:24:40.785Z,41.13
2023-02-06T06:27:27.702Z,45.50
2023-02-06T06:30:14.903Z,47.27
2023-02-06T06:33:01.829Z,47.45
2023-02-06T06:35:48.661Z,41.10
2023-02-06T06:38:35.610Z,38.90
2023-02-06T06:41:22.439Z,42.72
2023-02-06T06:44:09.234Z,45.37
2023-02-06T06:46:56.105Z,44.40
2023-02-06T06:49:42.952Z,41.80
2023-02-06T06:52:29.720Z,44.07
2023-02-06T06:55:16.900Z,33.53
2023-02-06T06:58:03.730Z,37.42
2023-02-06T07:00:53.854Z,42.87
2023-02-06T07:03:44.246Z,37.90
2023-02-06T07:06:31.134Z,33.50
2023-02-06T07:09:18.076Z,40.20
2023-02-06T07:12:05.483Z,38.17
2023-02-06T07:14:52.399Z,37.10
2023-02-06T07:17:39.428Z,38.88
2023-02-06T07:20:26.349Z,37.83
2023-02-06T07:23:13.226Z,33.70
2023-02-06T07:26:02.344Z,34.43
2023-02-06T07:28:49.911Z,31.85
2023-02-06T07:31:36.753Z,39.28
2023-02-06T07:34:23.749Z,34.30
2023-02-06T07:37:10.664Z,38.65
2023-02-06T07:39:57.471Z,41.17
2023-02-06T07:42:44.282Z,33.67
2023-02-06T07:45:31.227Z,34.57
2023-02-06T07:48:18.039Z,29.90
2023-02-06T07:51:09.209Z,30.52
2023-02-06T07:53:55.989Z,46.42
2023-02-06T07:56:43.287Z,46.38
2023-02-06T07:59:30.219Z,43.90
2023-02-06T08:02:17.196Z,45.35
2023-02-06T08:05:04.033Z,38.05
2023-02-06T08:07:52.147Z,33.47
2023-02-06T08:10:40.020Z,34.47
2023-02-06T08:13:26.856Z,38.65
2023-02-06T08:16:16.376Z,41.20
2023-02-06T08:19:03.262Z,38.83
2023-02-06T08:21:50.809Z,38.80
2023-02-06T08:24:37.651Z,43.67
2023-02-06T08:27:24.467Z,37.30
2023-02-06T08:30:12.255Z,30.27
2023-02-06T08:35:45.860Z,25.75
2023-02-06T08:38:32.955Z,26.33
2023-02-06T08:41:26.398Z,30.88
2023-02-06T08:44:16.334Z,32.30
2023-02-06T08:47:10.116Z,30.25
2023-02-06T08:49:57.394Z,32.90
2023-02-06T08:52:44.271Z,30.47
2023-02-06T08:55:31.186Z,33.63
2023-02-06T08:58:18.060Z,30.67
2023-02-06T09:01:09.768Z,30.73
2023-02-06T09:04:01.716Z,33.00
2023-02-06T09:06:52.241Z,35.50
2023-02-06T09:09:39.392Z,35.97
2023-02-06T09:12:26.213Z,45.17
2023-02-06T09:15:13.046Z,46.60
2023-02-06T09:17:59.921Z,77.70
2023-02-06T09:20:49.753Z,63.77
2023-02-06T09:23:37.035Z,66.50
2023-02-06T09:26:25.921Z,57.80
2023-02-06T09:29:13.496Z,57.25
2023-02-06T09:32:00.964Z,46.53
2023-02-06T09:34:49.103Z,39.40
2023-02-06T09:37:36.676Z,45.03
2023-02-06T09:40:28.046Z,42.88
2023-02-06T09:43:15.081Z,28.65
2023-02-06T09:46:05.968Z,25.80
2023-02-06T09:48:54.091Z,26.20
2023-02-06T09:51:53.329Z,29.20
2023-02-06T09:54:52.267Z,46.70
2023-02-06T09:58:30.012Z,68.68
2023-02-06T10:01:23.087Z,92.13
2023-02-06T10:04:25.333Z,51.67
2023-02-06T10:07:43.078Z,43.53
2023-02-06T10:10:38.875Z,65.22
2023-02-06T10:13:52.764Z,95.05
2023-02-06T10:16:51.614Z,48.22
2023-02-06T10:19:56.426Z,33.22
2023-02-06T10:22:47.605Z,24.00
2023-02-06T10:25:39.016Z,17.75
2023-02-06T10:28:29.316Z,15.85
2023-02-06T10:31:19.398Z,15.07
2023-02-06T10:34:17.556Z,18.20
2023-02-06T10:37:25.638Z,19.40
2023-02-06T10:40:34.400Z,19.90
2023-02-06T10:43:40.618Z,22.33
2023-02-06T10:46:36.367Z,22.75
2023-02-06T10:49:37.879Z,18.73
2023-02-06T10:52:30.923Z,18.00
2023-02-06T10:55:25.001Z,20.25
2023-02-06T10:58:23.912Z,21.05
2023-02-06T11:01:25.749Z,22.75
2023-02-06T11:04:40.626Z,21.67
2023-02-06T11:07:31.964Z,27.92
2023-02-06T11:10:21.570Z,30.75
2023-02-06T11:13:21.218Z,31.30
2023-02-06T11:16:14.239Z,31.35
2023-02-06T11:19:10.734Z,33.72
2023-02-06T11:22:15.911Z,29.13
2023-02-06T11:25:07.948Z,28.45
2023-02-06T11:27:55.775Z,27.45
2023-02-06T11:33:50.560Z,25.88
2023-02-06T11:36:39.000Z,26.30
2023-02-06T11:39:35.329Z,23.17
2023-02-06T11:42:24.870Z,26.50
2023-02-06T11:45:31.248Z,27.05
2023-02-06T11:48:48.710Z,27.25
2023-02-06T11:51:48.919Z,24.92
2023-02-06T11:54:36.394Z,27.30
2023-02-06T11:57:26.845Z,24.90
2023-02-06T12:00:24.191Z,26.45
2023-02-06T12:03:33.141Z,23.52
2023-02-06T12:09:13.324Z,30.40
2023-02-06T12:12:14.272Z,26.40
2023-02-06T12:15:36.231Z,27.63
2023-02-06T12:18:44.017Z,34.90
2023-02-06T12:21:50.660Z,36.28
2023-02-06T12:24:44.575Z,34.22
2023-02-06T12:27:39.455Z,40.67
2023-02-06T12:30:38.777Z,37.25
2023-02-06T12:33:42.300Z,43.22
2023-02-06T12:36:38.535Z,46.25
2023-02-06T12:39:26.685Z,38.50
2023-02-06T12:42:47.311Z,38.72
2023-02-06T12:45:58.354Z,34.90
2023-02-06T12:49:23.635Z,34.67
2023-02-06T12:52:16.158Z,39.00
2023-02-06T12:55:29.030Z,34.70
2023-02-06T12:58:43.715Z,34.47
2023-02-06T13:02:01.077Z,35.67
2023-02-06T13:04:48.528Z,39.33
2023-02-06T13:07:48.995Z,37.63
2023-02-06T13:10:37.600Z,36.92
2023-02-06T13:13:32.943Z,38.53
2023-02-06T13:16:19.906Z,37.85
2023-02-06T13:19:19.487Z,37.45
2023-02-06T13:22:09.461Z,38.22
2023-02-06T13:24:58.316Z,40.05
2023-02-06T13:27:45.370Z,34.67
2023-02-06T13:30:32.233Z,37.00
2023-02-06T13:33:27.087Z,37.33
2023-02-06T13:36:24.800Z,37.13
2023-02-06T13:39:32.855Z,35.10
2023-02-06T13:42:34.648Z,34.50
2023-02-06T13:45:41.668Z,32.92
2023-02-06T13:48:50.115Z,37.28
2023-02-06T13:52:16.342Z,40.20
2023-02-06T13:55:16.173Z,38.00
2023-02-06T13:58:20.633Z,34.05
2023-02-06T14:01:14.588Z,27.95
2023-02-06T14:04:01.698Z,32.20
2023-02-06T14:07:17.845Z,26.92
2023-02-06T14:11:07.874Z,26.35
2023-02-06T14:14:17.366Z,27.40
2023-02-06T14:17:28.677Z,28.27
2023-02-06T14:20:42.025Z,23.58
2023-02-06T14:23:58.007Z,23.08
2023-02-06T14:26:50.800Z,18.42
2023-02-06T14:29:54.505Z,19.38
2023-02-06T14:32:54.045Z,19.05
2023-02-06T14:36:02.812Z,20.00
2023-02-06T14:39:26.514Z,17.23
2023-02-06T14:42:39.313Z,19.42
2023-02-06T14:45:41.722Z,20.85
2023-02-06T14:48:44.439Z,21.25
2023-02-06T14:51:39.741Z,18.65
2023-02-06T14:54:38.245Z,18.00
2023-02-06T14:57:26.749Z,19.40
2023-02-06T15:00:19.232Z,19.83
2023-02-06T15:03:19.207Z,20.70
2023-02-06T15:06:10.322Z,20.83
2023-02-06T15:08:57.334Z,18.95
2023-02-06T15:11:51.674Z,21.95
2023-02-06T15:14:38.730Z,23.85
2023-02-06T15:17:26.924Z,27.58
2023-02-06T15:20:25.826Z,26.90
2023-02-06T15:23:18.400Z,25.80
2023-02-06T15:26:17.866Z,19.77
2023-02-06T15:29:14.317Z,19.27
2023-02-06T15:32:07.893Z,20.55
2023-02-06T15:34:54.887Z,19.33
2023-02-06T15:37:41.724Z,18.42
2023-02-06T15:40:39.049Z,17.57
2023-02-06T15:43:27.118Z,16.60
2023-02-06T15:46:15.015Z,19.33
2023-02-06T15:49:02.007Z,20.40
2023-02-06T15:51:54.980Z,18.30
2023-02-06T15:54:45.029Z,21.55
2023-02-06T15:57:35.670Z,19.10
2023-02-06T16:00:32.806Z,17.20
2023-02-06T16:03:23.111Z,16.48
2023-02-06T16:06:17.538Z,18.77
2023-02-06T16:09:07.346Z,23.98
2023-02-06T16:11:57.018Z,24.48
2023-02-06T16:15:01.159Z,24.13
2023-02-06T16:17:48.081Z,22.35
2023-02-06T16:20:42.447Z,23.77
2023-02-06T16:23:43.242Z,23.30
2023-02-06T16:26:43.117Z,26.02
2023-02-06T16:29:32.709Z,22.80
2023-02-06T16:32:31.458Z,23.88
2023-02-06T16:35:18.392Z,25.83
2023-02-06T16:38:06.586Z,25.80
2023-02-06T16:40:53.519Z,27.40
2023-02-06T16:43:41.639Z,29.58
2023-02-06T16:46:29.213Z,25.33
2023-02-06T16:49:19.480Z,26.70
2023-02-06T16:52:06.816Z,27.20
2023-02-06T16:54:55.992Z,26.60
2023-02-06T16:57:45.108Z,23.70
2023-02-06T17:00:32.614Z,26.95
2023-02-06T17:03:19.557Z,26.85
2023-02-06T17:06:07.321Z,27.33
2023-02-06T17:11:42.209Z,21.95
2023-02-06T17:14:29.122Z,25.58
2023-02-06T17:17:19.354Z,24.27
2023-02-06T17:20:17.445Z,21.95
2023-02-06T17:23:05.180Z,22.63
2023-02-06T17:25:52.276Z,23.20
2023-02-06T17:28:39.368Z,21.38
2023-02-06T17:31:26.653Z,23.30
2023-02-06T17:34:13.573Z,21.83
2023-02-06T17:37:00.686Z,20.93
2023-02-06T17:39:51.959Z,11.18
2023-02-06T17:42:38.775Z,17.13
2023-02-06T17:45:26.449Z,16.70
2023-02-06T17:48:13.761Z,16.25
2023-02-06T17:51:00.618Z,15.32
2023-02-06T17:53:47.548Z,15.83
2023-02-06T17:56:35.338Z,16.45
2023-02-06T18:02:14.628Z,15.48
2023-02-06T18:05:01.578Z,14.77
2023-02-06T18:07:50.685Z,17.67
2023-02-06T18:10:39.536Z,17.40
2023-02-06T18:13:28.307Z,15.90
2023-02-06T18:16:21.424Z,17.48
2023-02-06T18:19:08.597Z,16.63
2023-02-06T18:21:55.458Z,16.85
2023-02-06T18:24:42.437Z,16.67
2023-02-06T18:27:29.803Z,17.38
2023-02-06T18:30:17.323Z,19.38
2023-02-06T18:33:04.235Z,19.33
2023-02-06T18:35:51.431Z,17.08
2023-02-06T18:38:38.431Z,16.92
2023-02-06T18:41:43.890Z,16.13
2023-02-06T18:44:31.306Z,16.35
2023-02-06T18:47:18.987Z,16.88
2023-02-06T18:50:06.271Z,16.13
2023-02-06T18:52:53.451Z,17.60
2023-02-06T18:55:40.554Z,17.58
2023-02-06T18:58:27.448Z,18.15
2023-02-06T19:01:21.156Z,15.43
2023-02-06T19:04:07.939Z,16.77
2023-02-06T19:06:55.098Z,19.90
2023-02-06T19:09:42.396Z,17.92
2023-02-06T19:12:29.775Z,23.20
2023-02-06T19:15:16.655Z,21.42
2023-02-06T19:18:05.438Z,19.73
2023-02-06T19:20:52.253Z,22.00
2023-02-06T19:23:39.877Z,16.47
2023-02-06T19:29:19.341Z,16.17
2023-02-06T19:32:10.810Z,17.90
2023-02-06T19:34:58.110Z,19.00
2023-02-06T19:37:45.002Z,21.48
2023-02-06T19:40:32.340Z,19.50
2023-02-06T19:43:19.657Z,17.63
2023-02-06T19:46:13.084Z,18.08
2023-02-06T19:49:00.333Z,16.05
2023-02-06T19:51:47.367Z,16.52
2023-02-06T19:54:34.174Z,18.55
2023-02-06T19:57:21.034Z,18.80
2023-02-06T20:00:08.606Z,15.50
2023-02-06T20:02:55.719Z,20.15
2023-02-06T20:05:43.724Z,20.67
2023-02-06T20:08:30.761Z,18.67
2023-02-06T20:11:20.379Z,19.65
2023-02-06T20:14:07.640Z,19.40
2023-02-06T20:16:54.582Z,19.08
2023-02-06T20:19:41.566Z,16.35
2023-02-06T20:22:28.919Z,19.63
2023-02-06T20:25:16.678Z,19.20
2023-02-06T20:30:51.283Z,18.10
2023-02-06T20:33:38.716Z,20.35
2023-02-06T20:36:27.568Z,20.05
2023-02-06T20:39:15.111Z,22.98
2023-02-06T20:42:01.974Z,24.77
2023-02-06T20:44:50.317Z,24.52
2023-02-06T20:47:37.440Z,25.27
2023-02-06T20:50:24.330Z,20.77
2023-02-06T20:53:11.322Z,23.67
2023-02-06T20:55:59.319Z,22.02
2023-02-06T20:58:47.268Z,23.92
2023-02-06T21:01:34.872Z,23.02
2023-02-06T21:04:21.832Z,24.17
2023-02-06T21:07:08.714Z,22.90
2023-02-06T21:09:55.556Z,24.93
2023-02-06T21:12:42.379Z,26.70
2023-02-06T21:15:29.575Z,26.03
2023-02-06T21:18:16.746Z,29.75
2023-02-06T21:21:09.443Z,26.48
2023-02-06T21:23:56.373Z,25.10
2023-02-06T21:26:43.811Z,28.15
2023-02-06T21:29:31.841Z,27.25
2023-02-06T21:32:19.043Z,26.60
2023-02-06T21:35:09.250Z,24.48
2023-02-06T21:37:56.642Z,26.73
2023-02-06T21:40:44.749Z,29.27
2023-02-06T21:43:31.802Z,30.02
2023-02-06T21:46:18.699Z,32.80
2023-02-06T21:49:06.532Z,29.90
2023-02-06T21:51:53.592Z,32.22
2023-02-06T21:54:40.484Z,33.13
2023-02-06T21:57:27.336Z,30.83
2023-02-06T22:00:14.781Z,32.37
2023-02-06T22:03:02.011Z,30.27
2023-02-06T22:05:49.080Z,26.98
2023-02-06T22:08:36.937Z,22.83
2023-02-06T22:11:28.786Z,29.60
2023-02-06T22:14:17.868Z,29.77
2023-02-06T22:17:04.783Z,26.20
2023-02-06T22:19:53.578Z,31.25
2023-02-06T22:22:41.245Z,28.90
2023-02-06T22:28:15.496Z,32.10
2023-02-06T22:31:11.417Z,32.47
2023-02-06T22:34:00.036Z,34.13
2023-02-06T22:36:47.580Z,34.85
2023-02-06T22:39:34.776Z,35.10
2023-02-06T22:42:22.063Z,34.35
2023-02-06T22:45:09.224Z,34.42
2023-02-06T22:47:56.029Z,34.22
2023-02-06T22:50:42.831Z,36.63
2023-02-06T22:53:31.553Z,35.00
2023-02-06T22:56:31.897Z,33.65
2023-02-06T22:59:21.757Z,32.70
2023-02-06T23:02:08.677Z,29.83
2023-02-06T23:04:55.712Z,30.48
2023-02-06T23:07:42.677Z,31.40
2023-02-06T23:10:29.506Z,31.98
2023-02-06T23:13:16.362Z,29.90
2023-02-06T23:16:03.749Z,26.43
2023-02-06T23:18:50.956Z,24.63
2023-02-06T23:21:39.678Z,26.23
2023-02-06T23:24:26.688Z,25.65
2023-02-06T23:27:13.540Z,25.92
2023-02-06T23:30:00.462Z,27.20
2023-02-06T23:32:47.527Z,29.58
2023-02-06T23:35:39.852Z,30.13
2023-02-06T23:38:26.879Z,30.55
2023-02-06T23:41:33.241Z,27.58
2023-02-06T23:44:20.163Z,27.63
2023-02-06T23:47:06.999Z,28.52
2023-02-06T23:49:53.895Z,26.27
2023-02-06T23:52:41.050Z,25.02
2023-02-06T23:55:28.484Z,24.33
2023-02-06T23:58:15.490Z,24.92
